< < Back
Terminal Aerodrome Forecast


Current Version              Previous Versions:   1  2  3  4  5  6  7  8  9  

Terminal Aerodrome Forecast

549
FTUS42 KMLB 090858 AAA
TAFMCO
TAF AMD
KMCO 090858Z 0909/1006 28015G22KT P6SM BKN050 OVC080
     FM091700 27020G30KT P6SM BKN050
     FM100000 27014G20KT P6SM SCT050=

Latest METAR

374
SAUS70 KWBC 092000 RRB
MTRMCO
METAR KMCO 091953Z 24016G23KT 10SM SCT047 BKN060 14/02 A2997 RMK AO2 PK
WND 27027/1940 SLP148 T01390022


USA.gov is the U.S. government's official web portal to all federal, state and local government web resources and services.